createdAt,value
2022-12-08T00:01:30.323Z,101297.91
2022-12-08T00:04:02.798Z,101298.81
2022-12-08T00:06:55.324Z,101290.03
2022-12-08T00:09:37.959Z,101281.25
2022-12-08T00:12:09.917Z,101283.91
2022-12-08T00:14:45.596Z,101275.13
2022-12-08T00:17:15.307Z,101273.38
2022-12-08T00:19:43.478Z,101265.50
2022-12-08T00:22:12.556Z,101269.88
2022-12-08T00:24:41.837Z,101276.03
2022-12-08T00:27:11.996Z,101279.53
2022-12-08T00:29:39.407Z,101266.38
2022-12-08T00:32:07.442Z,101263.75
2022-12-08T00:34:34.904Z,101258.47
2022-12-08T00:37:02.190Z,101247.09
2022-12-08T00:39:29.301Z,101248.84
2022-12-08T00:42:14.691Z,101245.34
2022-12-08T00:44:44.537Z,101236.59
2022-12-08T00:47:12.701Z,101228.69
2022-12-08T00:49:40.224Z,101229.56
2022-12-08T00:52:07.682Z,101224.31
2022-12-08T00:54:35.102Z,101223.41
2022-12-08T00:57:02.234Z,101219.06
2022-12-08T00:59:29.366Z,101219.91
2022-12-08T01:01:56.490Z,101214.66
2022-12-08T01:04:24.513Z,101222.56
2022-12-08T01:06:51.642Z,101211.16
2022-12-08T01:09:19.272Z,101219.03
2022-12-08T01:11:46.845Z,101208.50
2022-12-08T01:14:14.761Z,101206.75
2022-12-08T01:16:42.713Z,101206.75
2022-12-08T01:19:13.131Z,101205.88
2022-12-08T01:21:41.442Z,101219.03
2022-12-08T01:24:13.600Z,101207.66
2022-12-08T01:26:41.557Z,101205.03
2022-12-08T01:29:09.494Z,101204.16
2022-12-08T01:31:36.900Z,101197.09
2022-12-08T01:34:04.623Z,101197.09
2022-12-08T01:36:34.066Z,101198.88
2022-12-08T01:39:02.612Z,101208.50
2022-12-08T01:41:33.420Z,101208.50
2022-12-08T01:44:13.535Z,101211.13
2022-12-08T01:46:44.079Z,101217.28
2022-12-08T01:49:23.333Z,101207.63
2022-12-08T01:52:19.478Z,101205.00
2022-12-08T01:54:59.583Z,101198.00
2022-12-08T01:57:46.187Z,101192.75
2022-12-08T02:00:17.720Z,101203.25
2022-12-08T02:02:59.443Z,101197.13
2022-12-08T02:05:31.239Z,101198.88
2022-12-08T02:08:01.524Z,101190.97
2022-12-08T02:10:32.748Z,101187.47
2022-12-08T02:13:01.587Z,101183.09
2022-12-08T02:15:45.464Z,101183.09
2022-12-08T02:18:39.398Z,101176.94
2022-12-08T02:21:19.335Z,101175.19
2022-12-08T02:24:00.144Z,101176.06
2022-12-08T02:27:01.295Z,101162.06
2022-12-08T02:30:08.578Z,101158.56
2022-12-08T02:32:57.442Z,101154.16
2022-12-08T02:35:36.284Z,101149.78
2022-12-08T02:38:20.409Z,101154.19
2022-12-08T02:41:21.878Z,101158.53
2022-12-08T02:43:57.275Z,101148.91
2022-12-08T02:46:42.511Z,101151.53
2022-12-08T02:49:10.463Z,101148.00
2022-12-08T02:51:37.589Z,101150.66
2022-12-08T02:54:05.016Z,101141.88
2022-12-08T02:57:15.858Z,101127.84
2022-12-08T03:00:14.387Z,101127.84
2022-12-08T03:03:18.212Z,101123.47
2022-12-08T03:06:18.833Z,101119.97
2022-12-08T03:09:01.415Z,101120.84
2022-12-08T03:11:54.739Z,101116.47
2022-12-08T03:14:22.878Z,101125.22
2022-12-08T03:16:55.175Z,101118.22
2022-12-08T03:19:28.199Z,101119.97
2022-12-08T03:22:08.340Z,101121.72
2022-12-08T03:24:39.060Z,101131.34
2022-12-08T03:27:18.997Z,101122.59
2022-12-08T03:29:52.211Z,101120.81
2022-12-08T03:32:47.596Z,101113.81
2022-12-08T03:35:17.898Z,101111.19
2022-12-08T03:37:45.108Z,101109.44
2022-12-08T03:40:16.861Z,101098.03
2022-12-08T03:42:44.050Z,101095.41
2022-12-08T03:45:11.860Z,101084.00
2022-12-08T03:47:38.983Z,101090.13
2022-12-08T03:50:07.227Z,101078.75
2022-12-08T03:52:34.503Z,101081.38
2022-12-08T03:55:01.554Z,101075.25
2022-12-08T03:57:28.636Z,101076.09
2022-12-08T03:59:55.682Z,101069.97
2022-12-08T04:02:22.888Z,101074.34
2022-12-08T04:04:50.040Z,101079.63
2022-12-08T04:07:17.109Z,101081.41
2022-12-08T04:09:44.858Z,101073.50
2022-12-08T04:12:11.970Z,101084.91
2022-12-08T04:14:39.047Z,101070.88
2022-12-08T04:17:06.154Z,101065.63
2022-12-08T04:19:33.293Z,101068.25
2022-12-08T04:22:00.413Z,101063.84
2022-12-08T04:24:27.551Z,101055.97
2022-12-08T04:26:54.630Z,101050.72
2022-12-08T04:29:21.713Z,101057.72
2022-12-08T04:31:48.876Z,101055.97
2022-12-08T04:34:15.977Z,101055.09
2022-12-08T04:36:43.013Z,101062.09
2022-12-08T04:39:10.075Z,101064.72
2022-12-08T04:41:37.118Z,101049.81
2022-12-08T04:44:04.301Z,101050.72
2022-12-08T04:46:31.466Z,101042.81
2022-12-08T04:48:58.607Z,101048.06
2022-12-08T04:51:27.202Z,101052.47
2022-12-08T04:53:54.322Z,101054.22
2022-12-08T04:56:21.438Z,101055.97
2022-12-08T04:58:48.514Z,101047.19
2022-12-08T05:01:16.178Z,101045.44
2022-12-08T05:03:43.313Z,101048.94
2022-12-08T05:06:14.499Z,101048.94
2022-12-08T05:08:42.617Z,101049.81
2022-12-08T05:11:12.199Z,101052.47
2022-12-08T05:13:39.311Z,101041.94
2022-12-08T05:16:15.375Z,101040.19
2022-12-08T05:18:43.358Z,101041.06
2022-12-08T05:21:10.924Z,101041.06
2022-12-08T05:23:38.200Z,101044.56
2022-12-08T05:26:05.576Z,101043.69
2022-12-08T05:28:41.273Z,101044.56
2022-12-08T05:31:10.685Z,101044.56
2022-12-08T05:33:37.835Z,101048.94
2022-12-08T05:36:05.094Z,101037.56
2022-12-08T05:38:32.173Z,101042.81
2022-12-08T05:40:59.286Z,101040.19
2022-12-08T05:43:27.133Z,101041.09
2022-12-08T05:45:54.317Z,101034.91
2022-12-08T05:48:21.430Z,101030.56
2022-12-08T05:50:49.662Z,101033.19
2022-12-08T05:53:18.387Z,101032.31
2022-12-08T05:55:46.466Z,101027.94
2022-12-08T05:58:17.412Z,101028.81
2022-12-08T06:00:45.360Z,101032.31
2022-12-08T06:03:14.052Z,101027.09
2022-12-08T06:05:42.968Z,101033.19
2022-12-08T06:08:10.697Z,101028.81
2022-12-08T06:10:43.379Z,101026.19
2022-12-08T06:13:11.133Z,101028.81
2022-12-08T06:15:39.090Z,101031.44
2022-12-08T06:18:07.236Z,101023.56
2022-12-08T06:20:34.723Z,101014.78
2022-12-08T06:23:02.038Z,101020.94
2022-12-08T06:25:29.220Z,101020.94
2022-12-08T06:27:56.313Z,101014.78
2022-12-08T06:30:23.444Z,101018.28
2022-12-08T06:32:50.553Z,101021.78
2022-12-08T06:35:17.674Z,101021.78
2022-12-08T06:37:44.713Z,101025.31
2022-12-08T06:40:12.731Z,101020.94
2022-12-08T06:42:47.018Z,101023.53
2022-12-08T06:45:18.530Z,101034.09
2022-12-08T06:47:45.818Z,101040.22
2022-12-08T06:50:14.214Z,101036.72
2022-12-08T06:52:51.703Z,101029.72
2022-12-08T06:55:57.344Z,101027.94
2022-12-08T06:58:14.914Z,101034.13
2022-12-08T07:00:43.282Z,101030.59
2022-12-08T07:03:12.331Z,101033.22
2022-12-08T07:05:39.737Z,101028.84
2022-12-08T07:08:09.267Z,101025.34
2022-12-08T07:10:36.753Z,101029.72
2022-12-08T07:13:04.324Z,101024.47
2022-12-08T07:15:31.584Z,101034.13
2022-12-08T07:18:00.386Z,101032.38
2022-12-08T07:20:27.872Z,101032.34
2022-12-08T07:22:55.288Z,101034.09
2022-12-08T07:25:22.726Z,101031.47
2022-12-08T07:27:51.472Z,101028.00
2022-12-08T07:30:18.763Z,101023.59
2022-12-08T07:32:46.629Z,101026.22
2022-12-08T07:35:14.047Z,101020.09
2022-12-08T07:37:41.167Z,101031.50
2022-12-08T07:40:10.114Z,101035.88
2022-12-08T07:42:37.290Z,101031.50
2022-12-08T07:45:04.759Z,101029.75
2022-12-08T07:47:31.882Z,101027.13
2022-12-08T07:49:59.017Z,101028.88
2022-12-08T07:52:26.118Z,101033.25
2022-12-08T07:54:53.240Z,101027.97
2022-12-08T07:57:20.352Z,101028.88
2022-12-08T07:59:47.446Z,101028.88
2022-12-08T08:02:24.960Z,101032.38
2022-12-08T08:04:53.151Z,101032.38
2022-12-08T08:07:20.428Z,101027.09
2022-12-08T08:09:47.486Z,101028.00
2022-12-08T08:12:31.636Z,101029.75
2022-12-08T08:15:01.054Z,101031.47
2022-12-08T08:17:29.388Z,101031.47
2022-12-08T08:19:56.922Z,101035.84
2022-12-08T08:22:25.842Z,101030.63
2022-12-08T08:24:53.690Z,101042.00
2022-12-08T08:27:21.292Z,101038.50
2022-12-08T08:29:48.360Z,101045.50
2022-12-08T08:32:15.561Z,101049.03
2022-12-08T08:34:43.092Z,101044.63
2022-12-08T08:37:10.213Z,101049.00
2022-12-08T08:39:37.347Z,101055.13
2022-12-08T08:42:04.502Z,101049.00
2022-12-08T08:44:31.595Z,101054.25
2022-12-08T08:46:58.717Z,101049.88
2022-12-08T08:49:25.983Z,101049.88
2022-12-08T08:51:53.086Z,101046.38
2022-12-08T08:54:20.139Z,101059.50
2022-12-08T08:56:48.176Z,101056.00
2022-12-08T08:59:15.284Z,101058.63
2022-12-08T09:01:42.420Z,101048.13
2022-12-08T09:04:10.712Z,101045.50
2022-12-08T09:06:38.113Z,101039.38
2022-12-08T09:09:05.672Z,101030.59
2022-12-08T09:11:33.167Z,101033.25
2022-12-08T09:14:00.298Z,101042.00
2022-12-08T09:16:28.826Z,101043.72
2022-12-08T09:18:56.380Z,101043.72
2022-12-08T09:21:26.284Z,101033.25
2022-12-08T09:23:58.959Z,101045.50
2022-12-08T09:26:28.298Z,101041.13
2022-12-08T09:28:56.876Z,101044.63
2022-12-08T09:31:24.920Z,101038.50
2022-12-08T09:33:52.633Z,101040.25
2022-12-08T09:36:20.475Z,101035.00
2022-12-08T09:38:49.067Z,101034.09
2022-12-08T09:41:42.014Z,101034.13
2022-12-08T09:44:50.779Z,101036.72
2022-12-08T09:47:35.732Z,101050.75
2022-12-08T09:50:52.641Z,101042.84
2022-12-08T09:53:36.502Z,101042.84
2022-12-08T09:56:13.502Z,101041.97
2022-12-08T09:58:53.491Z,101046.38
2022-12-08T10:01:23.762Z,101049.88
2022-12-08T10:03:51.002Z,101045.47
2022-12-08T10:06:47.891Z,101046.34
2022-12-08T10:09:39.594Z,101044.59
2022-12-08T10:12:37.562Z,101040.22
2022-12-08T10:15:41.644Z,101040.19
2022-12-08T10:18:18.218Z,101039.31
2022-12-08T10:20:49.174Z,101035.81
2022-12-08T10:23:28.864Z,101028.81
2022-12-08T10:26:03.471Z,101038.44
2022-12-08T10:28:32.030Z,101027.91
2022-12-08T10:30:59.197Z,101038.47
2022-12-08T10:33:29.027Z,101030.56
2022-12-08T10:35:59.138Z,101023.53
2022-12-08T10:38:32.286Z,101027.03
2022-12-08T10:41:11.422Z,101016.50
2022-12-08T10:43:44.916Z,101014.75
2022-12-08T10:46:16.428Z,101016.50
2022-12-08T10:49:05.000Z,101018.25
2022-12-08T10:51:36.591Z,101016.50
2022-12-08T10:54:05.994Z,101011.25
2022-12-08T10:56:33.412Z,101020.03
2022-12-08T10:59:14.961Z,101013.00
2022-12-08T11:01:45.755Z,101013.88
2022-12-08T11:04:22.882Z,101016.50
2022-12-08T11:06:51.361Z,101018.28
2022-12-08T11:09:18.504Z,101017.44
2022-12-08T11:11:51.366Z,101017.38
2022-12-08T11:14:42.674Z,101020.06
2022-12-08T11:17:18.263Z,101020.03
2022-12-08T11:20:06.466Z,101015.66
2022-12-08T11:22:39.848Z,101013.03
2022-12-08T11:25:27.979Z,101008.69
2022-12-08T11:28:00.907Z,101001.63
2022-12-08T11:30:43.099Z,100999.00
2022-12-08T11:33:22.242Z,100997.25
2022-12-08T11:36:00.763Z,100982.38
2022-12-08T11:38:29.163Z,100972.75
2022-12-08T11:41:15.520Z,100977.13
2022-12-08T11:43:58.996Z,100975.38
2022-12-08T11:46:59.632Z,100969.22
2022-12-08T11:49:38.360Z,100969.22
2022-12-08T11:52:24.375Z,100962.22
2022-12-08T11:55:01.030Z,100958.72
2022-12-08T11:57:30.562Z,100966.59
2022-12-08T11:59:59.161Z,100956.97
2022-12-08T12:02:34.312Z,100952.53
2022-12-08T12:05:08.522Z,100948.16
2022-12-08T12:07:52.614Z,100951.66
2022-12-08T12:10:54.908Z,100944.66
2022-12-08T12:13:54.459Z,100946.41
2022-12-08T12:16:49.086Z,100949.88
2022-12-08T12:19:19.604Z,100938.47
2022-12-08T12:21:53.097Z,100939.34
2022-12-08T12:24:36.420Z,100946.38
2022-12-08T12:27:06.974Z,100935.84
2022-12-08T12:29:37.523Z,100934.06
2022-12-08T12:32:10.739Z,100934.94
2022-12-08T12:34:53.668Z,100936.69
2022-12-08T12:37:24.819Z,100942.81
2022-12-08T12:40:07.413Z,100933.16
2022-12-08T12:42:57.815Z,100933.19
2022-12-08T12:45:31.410Z,100932.31
2022-12-08T12:48:01.499Z,100927.91
2022-12-08T12:50:52.497Z,100925.31
2022-12-08T12:53:19.502Z,100924.41
2022-12-08T12:55:46.579Z,100921.81
2022-12-08T12:58:28.565Z,100931.47
2022-12-08T13:01:10.621Z,100921.81
2022-12-08T13:03:49.898Z,100921.84
2022-12-08T13:06:43.474Z,100913.94
2022-12-08T13:09:43.290Z,100916.56
2022-12-08T13:12:20.309Z,100920.13
2022-12-08T13:14:51.072Z,100919.19
2022-12-08T13:17:33.083Z,100919.19
2022-12-08T13:20:04.405Z,100921.81
2022-12-08T13:23:23.244Z,100911.31
2022-12-08T13:25:52.011Z,100913.91
2022-12-08T13:28:30.457Z,100913.06
2022-12-08T13:31:00.016Z,100913.94
2022-12-08T13:33:39.103Z,100913.91
2022-12-08T13:37:03.217Z,100906.91
2022-12-08T13:39:39.492Z,100899.91
2022-12-08T13:42:12.434Z,100903.41
2022-12-08T13:45:48.719Z,100906.06
2022-12-08T13:48:55.952Z,100906.06
2022-12-08T13:57:29.179Z,100911.34
2022-12-08T14:00:05.792Z,100906.09
2022-12-08T14:02:48.245Z,100909.59
2022-12-08T14:05:20.456Z,100916.59
2022-12-08T14:08:02.255Z,100915.72
2022-12-08T14:10:32.037Z,100913.09
2022-12-08T14:13:05.945Z,100913.97
2022-12-08T14:15:37.724Z,100919.25
2022-12-08T14:18:07.152Z,100921.00
2022-12-08T14:20:57.913Z,100912.22
2022-12-08T14:23:22.897Z,100913.09
2022-12-08T14:25:50.050Z,100915.72
2022-12-08T14:28:17.590Z,100912.22
2022-12-08T14:30:44.862Z,100919.28
2022-12-08T14:33:17.332Z,100917.50
2022-12-08T14:35:52.243Z,100916.66
2022-12-08T14:38:21.859Z,100917.53
2022-12-08T14:41:09.070Z,100907.88
2022-12-08T14:43:36.813Z,100915.72
2022-12-08T14:46:24.168Z,100918.41
2022-12-08T14:48:53.503Z,100922.78
2022-12-08T14:51:20.807Z,100919.28
2022-12-08T14:53:56.450Z,100911.38
2022-12-08T14:56:37.054Z,100917.53
2022-12-08T14:59:21.018Z,100911.38
2022-12-08T15:01:50.972Z,100914.91
2022-12-08T15:04:25.145Z,100903.53
2022-12-08T15:07:10.589Z,100908.78
2022-12-08T15:09:50.339Z,100906.16
2022-12-08T15:12:27.124Z,100907.91
2022-12-08T15:15:17.631Z,100902.66
2022-12-08T15:18:00.390Z,100904.44
2022-12-08T15:20:51.989Z,100905.31
2022-12-08T15:23:32.278Z,100899.19
2022-12-08T15:26:00.381Z,100894.81
2022-12-08T15:28:30.464Z,100897.44
2022-12-08T15:30:58.747Z,100891.31
2022-12-08T15:33:26.743Z,100898.31
2022-12-08T15:35:54.088Z,100894.81
2022-12-08T15:38:28.833Z,100901.81
2022-12-08T15:41:00.564Z,100903.56
2022-12-08T15:43:29.496Z,100899.19
2022-12-08T15:45:59.872Z,100906.19
2022-12-08T15:48:29.823Z,100919.31
2022-12-08T15:50:58.305Z,100913.19
2022-12-08T15:53:25.448Z,100910.56
2022-12-08T15:56:25.903Z,100912.31
2022-12-08T15:58:57.050Z,100910.56
2022-12-08T16:01:25.516Z,100908.78
2022-12-08T16:04:27.860Z,100910.59
2022-12-08T16:07:20.386Z,100902.66
2022-12-08T16:09:41.003Z,100906.16
2022-12-08T16:13:19.942Z,100907.03
2022-12-08T16:15:50.093Z,100908.81
2022-12-08T16:18:17.443Z,100909.72
2022-12-08T16:21:07.406Z,100905.34
2022-12-08T16:23:43.184Z,100913.22
2022-12-08T16:26:35.726Z,100911.47
2022-12-08T16:29:01.471Z,100903.59
2022-12-08T16:31:28.891Z,100895.75
2022-12-08T16:33:56.145Z,100901.00
2022-12-08T16:36:23.250Z,100897.50
2022-12-08T16:38:50.325Z,100888.75
2022-12-08T16:41:36.574Z,100892.28
2022-12-08T16:44:06.327Z,100887.91
2022-12-08T16:46:33.653Z,100894.03
2022-12-08T16:49:00.814Z,100897.53
2022-12-08T16:51:27.926Z,100902.78
2022-12-08T16:53:58.238Z,100900.13
2022-12-08T16:56:32.215Z,100904.53
2022-12-08T16:59:02.012Z,100903.66
2022-12-08T17:01:29.430Z,100905.41
2022-12-08T17:04:29.200Z,100903.66
2022-12-08T17:06:43.572Z,100899.28
2022-12-08T17:09:10.700Z,100903.63
2022-12-08T17:11:42.868Z,100906.25
2022-12-08T17:14:12.128Z,100908.88
2022-12-08T17:16:39.579Z,100903.63
2022-12-08T17:19:06.733Z,100901.03
2022-12-08T17:21:33.876Z,100896.66
2022-12-08T17:24:01.011Z,100892.28
2022-12-08T17:26:28.183Z,100892.28
2022-12-08T17:29:02.503Z,100894.03
2022-12-08T17:31:32.033Z,100898.38
2022-12-08T17:34:02.860Z,100891.41
2022-12-08T17:36:30.094Z,100883.53
2022-12-08T17:39:00.434Z,100891.41
2022-12-08T17:41:28.391Z,100893.16
2022-12-08T17:43:55.963Z,100898.41
2022-12-08T17:46:24.112Z,100895.78
2022-12-08T17:48:51.306Z,100896.66
2022-12-08T17:51:18.571Z,100891.44
2022-12-08T17:53:46.081Z,100887.03
2022-12-08T17:56:20.274Z,100897.53
2022-12-08T17:58:52.821Z,100896.66
2022-12-08T18:01:22.896Z,100893.16
2022-12-08T18:03:50.606Z,100896.66
2022-12-08T18:06:17.802Z,100895.81
2022-12-08T18:08:45.048Z,100900.16
2022-12-08T18:11:17.703Z,100891.41
2022-12-08T18:13:46.926Z,100896.69
2022-12-08T18:16:15.005Z,100892.28
2022-12-08T18:18:42.230Z,100889.66
2022-12-08T18:21:09.388Z,100898.41
2022-12-08T18:23:41.443Z,100897.53
2022-12-08T18:26:12.511Z,100891.41
2022-12-08T18:28:39.887Z,100895.78
2022-12-08T18:31:13.463Z,100895.78
2022-12-08T18:33:43.617Z,100886.16
2022-12-08T18:36:15.902Z,100888.78
2022-12-08T18:38:43.231Z,100883.53
2022-12-08T18:41:14.621Z,100883.50
2022-12-08T18:43:41.831Z,100887.91
2022-12-08T18:46:13.032Z,100899.28
2022-12-08T18:48:47.322Z,100900.13
2022-12-08T18:51:18.744Z,100904.50
2022-12-08T18:53:47.015Z,100894.88
2022-12-08T18:56:33.392Z,100900.13
2022-12-08T18:59:07.394Z,100897.47
2022-12-08T19:01:37.510Z,100906.22
2022-12-08T19:06:57.123Z,100908.84
2022-12-08T19:09:26.602Z,100909.72
2022-12-08T19:11:53.737Z,100903.59
2022-12-08T19:14:27.733Z,100907.09
2022-12-08T19:16:55.177Z,100914.97
2022-12-08T19:19:22.226Z,100916.72
2022-12-08T19:21:49.378Z,100919.38
2022-12-08T19:24:16.781Z,100914.13
2022-12-08T19:26:44.156Z,100917.63
2022-12-08T19:29:12.271Z,100917.63
2022-12-08T19:31:40.574Z,100915.00
2022-12-08T19:34:09.233Z,100912.38
2022-12-08T19:36:42.920Z,100917.63
2022-12-08T19:39:41.079Z,100920.28
2022-12-08T19:42:34.865Z,100919.41
2022-12-08T19:45:16.143Z,100916.78
2022-12-08T19:47:43.856Z,100922.03
2022-12-08T19:50:32.646Z,100918.53
2022-12-08T19:53:00.520Z,100922.91
2022-12-08T19:55:28.209Z,100912.41
2022-12-08T19:57:56.934Z,100921.16
2022-12-08T20:00:24.374Z,100917.66
2022-12-08T20:02:52.051Z,100925.53
2022-12-08T20:05:19.268Z,100921.16
2022-12-08T20:07:46.982Z,100923.78
2022-12-08T20:10:21.986Z,100920.28
2022-12-08T20:12:49.206Z,100930.78
2022-12-08T20:15:16.273Z,100934.28
2022-12-08T20:17:44.044Z,100943.03
2022-12-08T20:20:14.221Z,100935.16
2022-12-08T20:22:41.729Z,100941.31
2022-12-08T20:25:12.718Z,100930.81
2022-12-08T20:27:41.089Z,100934.28
2022-12-08T20:30:15.078Z,100935.16
2022-12-08T20:32:44.471Z,100936.94
2022-12-08T20:35:11.653Z,100934.28
2022-12-08T20:37:38.795Z,100929.94
2022-12-08T20:40:06.869Z,100937.81
2022-12-08T20:42:33.919Z,100936.91
2022-12-08T20:45:01.004Z,100937.78
2022-12-08T20:47:28.827Z,100946.56
2022-12-08T20:49:56.019Z,100942.16
2022-12-08T20:52:23.306Z,100950.91
2022-12-08T20:54:50.496Z,100941.28
2022-12-08T20:57:17.745Z,100942.19
2022-12-08T20:59:44.954Z,100940.44
2022-12-08T21:02:12.144Z,100943.06
2022-12-08T21:04:39.510Z,100940.44
2022-12-08T21:07:08.900Z,100948.31
2022-12-08T21:09:37.328Z,100942.19
2022-12-08T21:12:05.005Z,100940.41
2022-12-08T21:14:32.085Z,100949.19
2022-12-08T21:16:59.400Z,100951.78
2022-12-08T21:19:26.570Z,100954.41
2022-12-08T21:21:53.815Z,100956.19
2022-12-08T21:24:21.048Z,100954.41
2022-12-08T21:26:48.330Z,100952.69
2022-12-08T21:29:16.409Z,100950.06
2022-12-08T21:31:43.800Z,100946.53
2022-12-08T21:34:11.576Z,100950.03
2022-12-08T21:36:38.806Z,100942.19
2022-12-08T21:39:11.667Z,100947.44
2022-12-08T21:41:58.315Z,100956.19
2022-12-08T21:44:26.133Z,100948.28
2022-12-08T21:46:53.443Z,100954.44
2022-12-08T21:49:20.811Z,100949.16
2022-12-08T21:51:48.136Z,100949.16
2022-12-08T21:54:19.016Z,100950.03
2022-12-08T21:56:48.704Z,100954.44
2022-12-08T21:59:17.379Z,100961.44
2022-12-08T22:01:45.225Z,100960.56
2022-12-08T22:04:17.467Z,100954.44
2022-12-08T22:06:44.949Z,100965.81
2022-12-08T22:09:13.541Z,100962.31
2022-12-08T22:11:41.712Z,100960.56
2022-12-08T22:14:14.106Z,100967.56
2022-12-08T22:16:43.124Z,100961.44
2022-12-08T22:19:10.652Z,100971.06
2022-12-08T22:21:38.246Z,100966.69
2022-12-08T22:24:06.170Z,100967.56
2022-12-08T22:26:33.599Z,100979.81
2022-12-08T22:29:00.905Z,100969.31
2022-12-08T22:31:28.541Z,100972.81
2022-12-08T22:33:55.954Z,100974.56
2022-12-08T22:36:26.120Z,100960.56
2022-12-08T22:38:54.637Z,100959.69
2022-12-08T22:41:22.738Z,100954.44
2022-12-08T22:43:50.753Z,100957.06
2022-12-08T22:46:26.391Z,100964.06
2022-12-08T22:48:54.507Z,100953.53
2022-12-08T22:51:22.117Z,100955.28
2022-12-08T22:53:49.457Z,100956.16
2022-12-08T22:56:17.697Z,100947.44
2022-12-08T22:58:45.542Z,100943.94
2022-12-08T23:01:30.664Z,100942.19
2022-12-08T23:03:59.717Z,100940.44
2022-12-08T23:06:30.463Z,100946.53
2022-12-08T23:08:57.938Z,100951.78
2022-12-08T23:11:29.679Z,100941.28
2022-12-08T23:14:02.602Z,100948.28
2022-12-08T23:16:29.841Z,100942.19
2022-12-08T23:18:58.508Z,100951.78
2022-12-08T23:21:25.898Z,100947.41
2022-12-08T23:23:53.037Z,100940.41
2022-12-08T23:26:29.121Z,100941.28
2022-12-08T23:28:57.408Z,100947.41
2022-12-08T23:31:25.474Z,100947.44
2022-12-08T23:33:53.369Z,100946.56
2022-12-08T23:36:23.094Z,100942.16
2022-12-08T23:38:50.435Z,100941.28
2022-12-08T23:41:17.786Z,100940.41
2022-12-08T23:43:50.333Z,100943.94
2022-12-08T23:46:20.381Z,100939.56
2022-12-08T23:48:48.030Z,100943.06
2022-12-08T23:51:16.349Z,100940.41
2022-12-08T23:53:44.495Z,100937.78
2022-12-08T23:56:15.589Z,100938.66
2022-12-08T23:58:44.114Z,100931.66
